Time;durP1;ratioP1;P1;durP2;ratioP2;P2;SDS_P1;SDS_P2;PMS_P1;PMS_P2;Temp;Humidity;BMP_temperature;BMP_pressure;BME280_temperature;BME280_humidity;BME280_pressure;Samples;Min_cycle;Max_cycle;Signal;HPM_P1;HPM_P2
2022/05/18 00:00:57;;;;;;;15.50;8.40;;;;;;;-0.42;57.54;100806.92;1765351;80;21101;-59
2022/05/18 00:03:29;;;;;;;16.93;7.72;;;;;;;-0.44;57.67;100811.16;1766077;80;21590;-59
2022/05/18 00:06:01;;;;;;;15.50;8.45;;;;;;;-0.44;57.77;100806.03;1761597;80;21626;-59
2022/05/18 00:08:35;;;;;;;13.13;7.78;;;;;;;-0.48;57.86;100814.50;1762209;80;21886;-59
2022/05/18 00:10:57;;;;;;;16.12;7.78;;;;;;;-0.48;57.94;100817.06;1765492;78;21049;-59
2022/05/18 00:13:24;;;;;;;16.77;7.95;;;;;;;-0.51;57.90;100806.77;1769885;80;21108;-59
2022/05/18 00:15:51;;;;;;;15.70;8.38;;;;;;;-0.51;58.00;100817.02;1760616;80;20976;-59
2022/05/18 00:18:18;;;;;;;24.75;8.63;;;;;;;-0.56;58.06;100810.95;1764937;80;21006;-59
2022/05/18 00:20:45;;;;;;;12.73;8.03;;;;;;;-0.56;58.10;100808.39;1720354;82;21453;-59
2022/05/18 00:23:12;;;;;;;13.10;7.80;;;;;;;-0.59;58.04;100808.34;1764212;80;21997;-60
2022/05/18 00:25:41;;;;;;;10.43;5.95;;;;;;;-0.62;58.10;100803.17;1764822;80;21547;-59
2022/05/18 00:28:08;;;;;;;10.43;7.37;;;;;;;-0.65;58.34;100815.95;1765681;80;21624;-59
2022/05/18 00:30:39;;;;;;;13.25;6.97;;;;;;;-0.72;58.45;100810.73;1770686;80;20970;-59
2022/05/18 00:33:09;;;;;;;15.23;6.55;;;;;;;-0.81;58.56;100827.26;1768609;80;21092;-59
2022/05/18 00:35:40;;;;;;;10.30;6.53;;;;;;;-0.88;58.66;100829.26;1770162;80;21109;-59
2022/05/18 00:38:08;;;;;;;15.70;7.17;;;;;;;-0.94;58.75;100831.73;1767040;80;20960;-60
2022/05/18 00:40:44;;;;;;;16.25;6.75;;;;;;;-1.01;58.76;100832.44;1763241;80;21527;-60
2022/05/18 00:43:22;;;;;;;25.30;7.90;;;;;;;-1.03;58.88;100834.14;1740081;81;21024;-59
2022/05/18 00:45:49;;;;;;;18.55;8.43;;;;;;;-1.06;58.96;100834.94;1729757;81;21093;-59
2022/05/18 00:48:15;;;;;;;10.80;6.33;;;;;;;-1.07;59.15;100832.34;1761096;80;20986;-59
2022/05/18 00:50:47;;;;;;;17.37;6.93;;;;;;;-1.11;59.23;100834.42;1761820;80;21017;-59
2022/05/18 00:53:22;;;;;;;12.80;7.05;;;;;;;-1.15;59.14;100842.05;1761458;80;20985;-60
2022/05/18 00:55:56;;;;;;;16.77;7.42;;;;;;;-1.16;59.40;100841.59;1740835;81;21025;-59
2022/05/18 00:58:37;;;;;;;13.62;6.37;;;;;;;-1.20;59.50;100846.23;1762713;80;21120;-59
2022/05/18 01:01:04;;;;;;;9.80;6.15;;;;;;;-1.25;59.56;100844.41;1765961;80;21077;-59
2022/05/18 01:03:45;;;;;;;12.13;6.78;;;;;;;-1.33;59.72;100850.66;1767951;80;21041;-60
2022/05/18 01:06:31;;;;;;;13.78;7.03;;;;;;;-1.39;59.83;100850.55;1758342;80;20951;-60
2022/05/18 01:09:22;;;;;;;10.72;6.62;;;;;;;-1.47;59.76;100849.54;1761595;80;21059;-59
2022/05/18 01:11:49;;;;;;;13.78;8.03;;;;;;;-1.48;59.85;100852.95;1762306;80;21573;-60
2022/05/18 01:14:32;;;;;;;14.50;9.07;;;;;;;-1.46;59.81;100856.38;1771417;80;20948;-60
2022/05/18 01:16:59;;;;;;;15.20;7.45;;;;;;;-1.49;59.93;100853.76;1765062;80;21157;-60
2022/05/18 01:19:46;;;;;;;13.30;7.25;;;;;;;-1.52;60.11;100851.14;1764125;80;20973;-59
2022/05/18 01:22:28;;;;;;;16.17;7.72;;;;;;;-1.54;60.24;100857.92;1742436;81;21000;-60
2022/05/18 01:25:27;;;;;;;17.25;8.05;;;;;;;-1.54;60.24;100857.92;1745206;80;21230;-59
2022/05/18 01:28:00;;;;;;;14.07;7.45;;;;;;;-1.54;60.31;100865.60;1735857;81;21015;-60
2022/05/18 01:30:29;;;;;;;13.83;6.60;;;;;;;-1.56;60.52;100866.02;1744829;80;20938;-60
2022/05/18 01:32:58;;;;;;;15.55;7.12;;;;;;;-1.58;60.52;100866.83;1736643;80;21614;-59
2022/05/18 01:35:30;;;;;;;12.47;6.08;;;;;;;-1.59;60.65;100871.52;1742287;80;21024;-60
2022/05/18 01:37:57;;;;;;;15.28;6.95;;;;;;;-1.61;60.64;100868.05;1755815;80;22347;-59
2022/05/18 01:40:38;;;;;;;13.93;7.08;;;;;;;-1.63;60.66;100868.42;1765891;80;24311;-60
2022/05/18 01:43:36;;;;;;;27.73;8.15;;;;;;;-1.61;60.70;100883.41;1763166;80;21064;-59
2022/05/18 01:46:07;;;;;;;25.65;9.55;;;;;;;-1.62;60.83;100877.00;1764799;80;20985;-60
2022/05/18 01:48:39;;;;;;;14.50;7.20;;;;;;;-1.64;60.93;100888.47;1760130;79;23338;-60
2022/05/18 01:51:08;;;;;;;13.18;6.80;;;;;;;-1.68;60.97;100881.58;1767480;80;21598;-60
2022/05/18 01:53:36;;;;;;;12.93;6.53;;;;;;;-1.69;61.11;100881.11;1773865;80;21037;-60
2022/05/18 01:56:04;;;;;;;12.90;7.35;;;;;;;-1.70;61.15;100897.31;1778718;79;20993;-59
2022/05/18 01:58:31;;;;;;;21.23;10.30;;;;;;;-1.71;61.06;100889.20;1772605;80;21060;-59
2022/05/18 02:00:58;;;;;;;16.35;7.40;;;;;;;-1.71;61.18;100895.98;1777255;80;21018;-60
2022/05/18 02:03:25;;;;;;;18.30;9.23;;;;;;;-1.69;61.27;100896.89;1761378;80;22232;-59
2022/05/18 02:05:53;;;;;;;14.67;8.53;;;;;;;-1.71;61.20;100889.20;1772123;79;20991;-60
2022/05/18 02:08:21;;;;;;;;;;;;;;;-1.77;61.47;100896.72;1775616;80;21240;-60
2022/05/18 02:10:48;;;;;;;20.77;11.70;;;;;;;-1.77;61.67;100894.16;1769016;80;20507;-60
2022/05/18 02:13:15;;;;;;;24.43;12.85;;;;;;;-1.76;61.65;100895.91;1778583;80;20994;-59
2022/05/18 02:15:42;;;;;;;27.02;14.45;;;;;;;-1.77;61.65;100890.31;1772037;80;22076;-60
2022/05/18 02:18:10;;;;;;;28.17;13.65;;;;;;;-1.77;61.66;100899.28;1778513;79;20978;-60
2022/05/18 02:20:38;;;;;;;35.13;17.48;;;;;;;-1.77;61.67;100898.00;1774546;80;21131;-60
2022/05/18 02:23:05;;;;;;;28.75;14.78;;;;;;;-1.78;61.82;100900.12;1779970;79;21085;-60
2022/05/18 02:25:32;;;;;;;25.05;12.88;;;;;;;-1.80;61.88;100901.78;1761224;80;20999;-60
2022/05/18 02:28:00;;;;;;;;;;;;;;;-1.87;61.80;100897.38;1773404;80;21173;-60
2022/05/18 02:30:27;;;;;;;28.50;14.15;;;;;;;-1.89;61.91;100886.22;1776098;80;26565;-60
2022/05/18 02:32:54;;;;;;;32.93;15.90;;;;;;;-1.90;61.95;100889.20;1766265;80;20975;-60
2022/05/18 02:35:21;;;;;;;31.47;15.90;;;;;;;-1.86;62.21;100888.84;1773791;80;20989;-60
2022/05/18 02:37:48;;;;;;;26.52;14.15;;;;;;;-1.85;62.33;100893.12;1760220;80;21677;-60
2022/05/18 02:40:15;;;;;;;23.47;13.23;;;;;;;-1.84;62.33;100893.59;1768661;80;22434;-60
2022/05/18 02:42:41;;;;;;;36.03;14.95;;;;;;;-1.84;62.48;100892.31;1772796;80;20977;-60
2022/05/18 02:45:10;;;;;;;34.48;14.75;;;;;;;-1.84;62.48;100897.44;1767896;80;21137;-60
2022/05/18 02:47:37;;;;;;;24.02;13.03;;;;;;;-1.81;62.53;100902.63;1765086;80;21033;-59
2022/05/18 02:50:05;;;;;;;20.00;11.30;;;;;;;-1.74;62.57;100899.34;1766075;80;21607;-60
2022/05/18 02:52:32;;;;;;;23.65;10.98;;;;;;;-1.68;62.63;100902.06;1770369;80;21151;-60
2022/05/18 02:57:44;;;;;;;11.68;6.28;;;;;;;-1.59;62.66;100903.53;1775041;80;21471;-60
2022/05/18 03:00:13;;;;;;;;;;;;;;;-1.58;62.65;100893.72;1771185;80;20990;-60
2022/05/18 03:02:40;;;;;;;8.48;5.12;;;;;;;-1.54;62.72;100898.91;1773083;80;20490;-60
2022/05/18 03:05:08;;;;;;;10.73;6.00;;;;;;;-1.53;62.80;100895.53;1774106;80;21156;-60
2022/05/18 03:07:35;;;;;;;10.28;5.78;;;;;;;-1.14;63.57;100902.72;1768559;80;21249;-60
2022/05/18 03:10:01;;;;;;;12.70;6.00;;;;;;;0.24;64.17;100894.27;1770320;80;20965;-60
2022/05/18 03:12:28;;;;;;;14.20;5.97;;;;;;;1.74;63.71;100895.87;1767967;80;21571;-60
2022/05/18 03:14:55;;;;;;;20.48;6.35;;;;;;;3.12;63.51;100887.05;1774421;79;20994;-60
2022/05/18 03:17:21;;;;;;;17.63;5.97;;;;;;;4.41;63.05;100888.67;1767230;80;21237;-60
2022/05/18 03:19:48;;;;;;;31.65;11.40;;;;;;;5.40;62.22;100887.27;1770217;80;21041;-60
2022/05/18 03:25:00;;;;;;;27.35;10.63;;;;;;;7.14;61.30;100883.66;1773684;80;21637;-60
2022/05/18 03:27:27;;;;;;;41.18;13.38;;;;;;;7.91;60.54;100890.24;1772310;80;21585;-61
2022/05/18 03:29:53;;;;;;;57.80;15.28;;;;;;;8.73;60.56;100891.27;1771759;80;22042;-61
2022/05/18 03:32:22;;;;;;;19.13;10.70;;;;;;;9.47;60.32;100892.69;1774515;80;21001;-61
2022/05/18 03:34:50;;;;;;;20.88;11.38;;;;;;;9.97;59.38;100892.73;1774533;80;20994;-60
2022/05/18 03:37:21;;;;;;;36.83;11.85;;;;;;;10.41;59.89;100885.45;1779676;80;20894;-60
2022/05/18 03:39:49;;;;;;;41.45;14.50;;;;;;;11.11;59.47;100889.52;1769080;80;21023;-60
2022/05/18 03:42:16;;;;;;;39.30;13.75;;;;;;;11.60;59.50;100887.97;1774852;80;21036;-61
2022/05/18 03:44:43;;;;;;;25.55;13.60;;;;;;;12.27;59.03;100898.78;1773225;80;20989;-61
2022/05/18 03:47:09;;;;;;;28.17;13.35;;;;;;;12.88;58.56;100895.67;1767739;80;21261;-61
2022/05/18 03:49:36;;;;;;;23.80;13.25;;;;;;;13.43;58.34;100896.14;1768680;79;21034;-61
2022/05/18 03:52:03;;;;;;;;;;;;;;;13.89;57.43;100897.31;1769345;80;21038;-61
2022/05/18 03:54:31;;;;;;;32.15;14.75;;;;;;;14.30;56.93;100894.69;1778839;80;22010;-61
2022/05/18 03:56:57;;;;;;;46.13;15.53;;;;;;;14.76;56.90;100895.30;1766076;80;20900;-62
2022/05/18 03:59:24;;;;;;;47.17;15.30;;;;;;;15.19;56.86;100895.44;1763589;80;20967;-61
2022/05/18 04:01:51;;;;;;;54.23;14.55;;;;;;;15.50;56.27;100898.37;1767373;80;21073;-61
2022/05/18 04:04:18;;;;;;;24.77;12.95;;;;;;;15.96;56.64;100898.73;1771880;80;20926;-62
2022/05/18 04:06:44;;;;;;;21.57;12.10;;;;;;;16.32;55.26;100899.45;1771911;80;24354;-61
2022/05/18 04:09:11;;;;;;;22.35;11.80;;;;;;;16.33;54.76;100902.50;1771180;80;21044;-61
2022/05/18 04:11:38;;;;;;;33.28;11.57;;;;;;;16.20;54.48;100910.65;1772942;80;21506;-62
2022/05/18 04:14:04;;;;;;;;;;;;;;;16.65;54.54;100905.20;1767991;80;21048;-61
2022/05/18 04:16:31;;;;;;;;;;;;;;;16.66;53.46;100904.73;1780811;80;20169;-61
2022/05/18 04:18:57;;;;;;;;;;;;;;;16.55;53.19;100910.57;1772212;80;23308;-61
2022/05/18 04:21:24;;;;;;;24.75;11.85;;;;;;;16.77;52.74;100916.42;1767548;80;20138;-62
2022/05/18 04:23:51;;;;;;;20.85;9.98;;;;;;;17.12;53.56;100921.58;1769062;80;21109;-62
2022/05/18 04:26:17;;;;;;;16.07;9.45;;;;;;;18.10;53.41;100913.31;1772525;80;20948;-61
2022/05/18 04:28:44;;;;;;;20.65;12.90;;;;;;;18.48;52.35;100920.70;1772763;80;21056;-61
2022/05/18 04:31:10;;;;;;;;;;;;;;;18.39;51.98;100925.72;1775622;80;21412;-62
2022/05/18 04:33:38;;;;;;;18.98;11.38;;;;;;;18.73;51.50;100929.78;1772850;80;20116;-62
2022/05/18 04:36:06;;;;;;;28.57;16.62;;;;;;;19.02;51.56;100922.71;1774087;79;21088;-61
2022/05/18 04:38:32;;;;;;;26.25;14.35;;;;;;;19.22;51.00;100926.73;1767859;80;21119;-61
2022/05/18 04:40:59;;;;;;;29.25;16.07;;;;;;;19.77;51.02;100924.45;1771800;80;20922;-62
2022/05/18 04:43:32;;;;;;;21.12;12.23;;;;;;;19.90;49.86;100921.36;1774272;80;21422;-61
2022/05/18 04:45:58;;;;;;;31.25;9.78;;;;;;;19.74;49.84;100937.91;1766749;79;20949;-62
2022/05/18 04:48:30;;;;;;;28.15;9.85;;;;;;;20.08;49.30;100934.31;1774922;80;21120;-62
2022/05/18 04:50:56;;;;;;;28.27;9.43;;;;;;;20.58;49.39;100932.67;1770324;78;21614;-63
2022/05/18 04:53:23;;;;;;;20.57;9.25;;;;;;;20.83;48.25;100933.60;1774913;80;21487;-62
2022/05/18 04:55:50;;;;;;;18.17;8.18;;;;;;;20.87;48.43;100929.79;1742280;81;23512;-62
2022/05/18 04:58:17;;;;;;;12.73;6.67;;;;;;;21.17;48.42;100934.22;1767317;80;21108;-62
2022/05/18 05:00:45;;;;;;;12.65;6.33;;;;;;;21.45;48.00;100931.76;1771368;80;20936;-61
2022/05/18 05:03:12;;;;;;;16.48;7.10;;;;;;;22.03;48.03;100926.52;1772241;78;21080;-61
2022/05/18 05:05:39;;;;;;;13.75;6.10;;;;;;;22.37;46.84;100938.59;1768554;80;20959;-61
2022/05/18 05:08:07;;;;;;;12.15;6.28;;;;;;;22.32;46.08;100934.09;1734150;81;21177;-61
2022/05/18 05:10:33;;;;;;;14.83;6.37;;;;;;;22.18;46.39;100932.98;1761747;80;21452;-62
2022/05/18 05:13:00;;;;;;;12.47;4.25;;;;;;;22.23;45.85;100932.16;1771312;80;21586;-62
2022/05/18 05:15:27;;;;;;;13.65;5.20;;;;;;;22.53;46.22;100936.92;1771593;80;21073;-61
2022/05/18 05:17:54;;;;;;;10.35;4.37;;;;;;;22.91;45.45;100933.90;1767166;80;21076;-61
2022/05/18 05:20:21;;;;;;;7.22;4.72;;;;;;;22.88;45.10;100939.47;1752277;81;21638;-61
2022/05/18 05:22:47;;;;;;;3.45;2.37;;;;;;;23.08;44.72;100938.36;1767047;80;20970;-62
2022/05/18 05:25:15;;;;;;;3.30;2.22;;;;;;;22.91;44.11;100939.23;1763186;80;22134;-61
2022/05/18 05:27:42;;;;;;;6.70;1.90;;;;;;;23.11;44.20;100938.14;1777099;79;21058;-60
2022/05/18 05:30:11;;;;;;;4.20;2.00;;;;;;;23.06;43.23;100942.98;1786868;80;21036;-61
2022/05/18 05:32:38;;;;;;;26.07;2.70;;;;;;;22.79;42.91;100944.17;1771496;79;21030;-61
2022/05/18 05:35:07;;;;;;;2.67;1.62;;;;;;;22.68;42.57;100946.84;1769878;79;21563;-61
2022/05/18 05:37:34;;;;;;;3.25;1.50;;;;;;;22.74;42.28;100950.34;1772435;79;20993;-62
2022/05/18 05:40:03;;;;;;;90.55;6.42;;;;;;;22.90;42.23;100953.48;1775435;80;21588;-61
2022/05/18 05:42:29;;;;;;;12.53;2.12;;;;;;;22.54;41.53;100944.77;1775190;80;21010;-61
2022/05/18 05:44:56;;;;;;;3.80;1.17;;;;;;;22.66;41.71;100946.11;1781718;80;21081;-61
2022/05/18 05:47:23;;;;;;;4.45;1.20;;;;;;;22.36;40.65;100950.20;1768974;79;20989;-61
2022/05/18 05:49:50;;;;;;;5.15;1.30;;;;;;;21.64;40.36;100947.16;1781407;79;21548;-61
2022/05/18 05:52:18;;;;;;;2.12;1.05;;;;;;;21.83;41.34;100945.80;1770208;80;20941;-61
2022/05/18 05:54:48;;;;;;;2.87;0.95;;;;;;;22.56;41.00;100953.48;1777517;80;20943;-60
2022/05/18 05:57:15;;;;;;;3.55;1.30;;;;;;;23.13;40.78;100953.00;1775041;80;21126;-61
2022/05/18 05:59:42;;;;;;;3.17;1.50;;;;;;;22.74;39.54;100955.67;1773681;80;20994;-61
2022/05/18 06:02:12;;;;;;;3.62;1.30;;;;;;;22.99;40.44;100955.47;1772101;80;21374;-62
2022/05/18 06:04:58;;;;;;;7.92;1.87;;;;;;;23.14;40.01;100952.55;1782833;80;21067;-60
2022/05/18 06:07:26;;;;;;;12.78;2.22;;;;;;;23.21;39.19;100952.39;1777229;79;21060;-62
2022/05/18 06:09:53;;;;;;;3.27;1.20;;;;;;;23.05;39.04;100953.27;1780561;78;22763;-61
2022/05/18 06:12:22;;;;;;;4.35;1.12;;;;;;;23.05;38.91;100953.27;1771136;80;21103;-61
2022/05/18 06:14:49;;;;;;;2.45;0.75;;;;;;;23.04;38.74;100951.58;1748000;81;21052;-61
2022/05/18 06:17:17;;;;;;;3.52;0.70;;;;;;;22.82;38.34;100957.24;1721964;82;21068;-61
2022/05/18 06:19:44;;;;;;;3.05;1.10;;;;;;;22.43;37.87;100958.06;1729085;82;21056;-60
2022/05/18 06:22:11;;;;;;;6.75;0.70;;;;;;;21.86;37.81;100957.53;1697334;82;21254;-63
2022/05/18 06:24:40;;;;;;;2.37;0.90;;;;;;;21.67;37.70;100958.89;1718497;82;21032;-60
2022/05/18 06:27:08;;;;;;;5.90;0.95;;;;;;;21.38;37.42;100969.51;1783998;80;22224;-61
2022/05/18 06:29:35;;;;;;;4.78;1.10;;;;;;;21.37;37.27;100967.34;1780606;79;21695;-61
2022/05/18 06:32:02;;;;;;;2.62;0.60;;;;;;;20.94;37.24;100965.55;1767308;80;21777;-60
2022/05/18 06:34:29;;;;;;;10.40;1.22;;;;;;;21.18;36.95;100977.08;1784371;80;21301;-62
2022/05/18 06:36:57;;;;;;;1.77;0.75;;;;;;;20.56;36.15;100974.41;1782941;79;21032;-61
2022/05/18 06:39:24;;;;;;;2.15;0.90;;;;;;;19.63;35.88;100976.15;1776525;78;20992;-61
2022/05/18 06:41:51;;;;;;;4.15;0.80;;;;;;;19.22;36.94;100978.36;1780065;78;22491;-60
2022/05/18 06:44:18;;;;;;;2.17;0.88;;;;;;;19.77;37.42;100970.82;1780124;80;20989;-61
2022/05/18 06:46:47;;;;;;;1.80;0.50;;;;;;;20.18;36.96;100969.03;1779539;79;21094;-60
2022/05/18 06:49:14;;;;;;;1.77;0.88;;;;;;;20.23;36.89;100970.89;1780871;79;21570;-62
2022/05/18 06:51:44;;;;;;;2.00;0.80;;;;;;;20.26;36.97;100970.20;1753489;79;21039;-62
2022/05/18 06:54:12;;;;;;;2.27;0.78;;;;;;;20.42;36.86;100974.48;1776542;80;21036;-60
2022/05/18 06:56:43;;;;;;;3.10;0.72;;;;;;;20.10;36.51;100975.69;1778243;80;21052;-61
2022/05/18 06:59:33;;;;;;;0.85;0.57;;;;;;;20.00;36.75;100975.10;1783860;79;21879;-62
2022/05/18 07:02:00;;;;;;;2.50;0.93;;;;;;;20.08;36.53;100980.71;1767499;79;21004;-62
2022/05/18 07:04:30;;;;;;;4.70;0.82;;;;;;;19.83;36.45;100981.05;1731575;80;21060;-63
2022/05/18 07:07:00;;;;;;;3.70;1.00;;;;;;;19.61;36.28;100982.05;1708218;82;21083;-62
2022/05/18 07:09:48;;;;;;;3.58;0.57;;;;;;;19.37;36.20;100978.69;1728809;82;21115;-62
2022/05/18 07:12:15;;;;;;;8.98;1.32;;;;;;;19.07;36.19;100980.63;1746251;81;21612;-62
2022/05/18 07:14:43;;;;;;;6.12;1.17;;;;;;;18.96;36.22;100981.30;1747370;79;21040;-62
2022/05/18 07:17:11;;;;;;;3.20;1.30;;;;;;;18.89;36.15;100982.16;1748568;81;21124;-61
2022/05/18 07:19:38;;;;;;;9.30;1.37;;;;;;;18.60;36.17;100981.73;1750410;81;21016;-63
2022/05/18 07:22:06;;;;;;;2.83;0.72;;;;;;;18.35;36.24;100988.52;1747020;81;21168;-62
2022/05/18 07:24:41;;;;;;;7.12;1.27;;;;;;;18.03;36.50;100989.08;1748080;81;22159;-62
2022/05/18 07:27:07;;;;;;;7.92;1.50;;;;;;;17.71;36.57;100982.99;1751025;81;21672;-62
2022/05/18 07:29:34;;;;;;;5.72;1.00;;;;;;;17.46;36.80;100994.93;1749872;81;28300;-62
2022/05/18 07:32:12;;;;;;;9.40;1.95;;;;;;;16.64;37.13;100970.75;1743541;80;21127;-62
2022/05/18 07:34:40;;;;;;;5.78;1.40;;;;;;;16.64;37.13;100970.75;1749964;81;21183;-60
2022/05/18 07:37:09;;;;;;;5.58;1.17;;;;;;;16.28;36.98;100990.17;1746803;80;21671;-61
2022/05/18 07:39:36;;;;;;;4.03;0.88;;;;;;;15.95;36.99;100987.91;1749795;80;21033;-61
2022/05/18 07:42:05;;;;;;;;;;;;;;;15.68;37.25;100988.31;1752851;80;21072;-61
2022/05/18 07:44:34;;;;;;;4.25;1.02;;;;;;;15.59;37.66;100985.63;1751448;81;20143;-62
2022/05/18 07:47:02;;;;;;;6.03;1.20;;;;;;;15.49;37.68;100994.03;1752859;81;21045;-61
2022/05/18 07:49:36;;;;;;;2.87;0.82;;;;;;;15.54;37.86;100997.31;1749178;81;22129;-62
2022/05/18 07:52:04;;;;;;;7.40;1.15;;;;;;;15.44;37.71;100987.70;1749032;81;21032;-62
2022/05/18 07:54:32;;;;;;;4.53;0.90;;;;;;;15.32;38.02;100986.94;1752429;81;21072;-60
2022/05/18 07:56:59;;;;;;;4.85;0.90;;;;;;;15.32;38.14;100985.19;1747890;80;21681;-61
2022/05/18 07:59:27;;;;;;;6.83;1.15;;;;;;;15.33;38.19;100986.88;1750988;81;21104;-61
2022/05/18 08:01:54;;;;;;;6.30;1.30;;;;;;;15.35;38.46;100988.98;1751063;81;21897;-61
2022/05/18 08:04:24;;;;;;;5.25;1.00;;;;;;;15.32;38.31;100990.45;1744038;81;21413;-62
2022/05/18 08:06:51;;;;;;;3.70;1.10;;;;;;;15.18;38.29;100988.92;1751413;81;21012;-62
2022/05/18 08:09:22;;;;;;;3.15;1.20;;;;;;;15.01;38.26;100998.88;1753010;81;21347;-63
2022/05/18 08:17:19;;;;;;;6.85;1.05;;;;;;;15.23;39.20;100988.22;1704802;82;21035;-61
2022/05/18 08:19:46;;;;;;;3.20;1.32;;;;;;;15.37;39.23;100989.74;1704420;82;21092;-62
2022/05/18 08:22:14;;;;;;;5.97;0.95;;;;;;;15.37;39.06;100983.16;1705041;82;22414;-61
2022/05/18 08:24:41;;;;;;;1.82;0.70;;;;;;;15.50;39.55;100978.19;1704539;82;21665;-61
2022/05/18 08:27:13;;;;;;;5.50;0.82;;;;;;;15.68;39.63;100975.16;1703713;82;21083;-62
2022/05/18 08:29:39;;;;;;;6.05;1.20;;;;;;;15.88;39.55;100973.73;1702689;82;21071;-61
2022/05/18 08:32:07;;;;;;;2.25;1.27;;;;;;;16.07;39.75;100970.16;1705743;82;21079;-60
2022/05/18 08:34:34;;;;;;;5.45;1.10;;;;;;;16.14;39.48;100966.30;1660842;85;21081;-61
2022/05/18 08:37:01;;;;;;;11.55;2.55;;;;;;;15.89;39.53;100967.52;1674940;84;21060;-61
2022/05/18 08:39:28;;;;;;;;;;;;;;;15.85;39.87;100967.30;1681345;84;21119;-60
2022/05/18 08:41:57;;;;;;;7.33;1.12;;;;;;;15.83;39.45;100967.84;1676938;84;21656;-61
2022/05/18 08:46:31;;;;;;;4.17;0.90;;;;;;;15.94;39.98;100958.56;1826534;75;22606;-60
2022/05/18 08:49:10;;;;;;;3.33;1.20;;;;;;;16.09;40.07;100957.78;1772622;78;21040;-61
2022/05/18 08:52:05;;;;;;;10.35;1.62;;;;;;;16.37;40.23;100959.00;1808456;78;21562;-61
2022/05/18 08:54:55;;;;;;;2.02;0.80;;;;;;;16.54;40.20;100961.61;1813756;77;20961;-61
2022/05/18 08:57:33;;;;;;;5.28;0.70;;;;;;;16.59;40.08;100958.27;1812350;76;21012;-62
2022/05/18 09:00:14;;;;;;;44.73;6.40;;;;;;;16.55;40.09;100952.31;1811911;77;21004;-61
2022/05/18 09:02:43;;;;;;;3.85;1.20;;;;;;;16.63;40.02;100954.52;1821650;78;21063;-62
2022/05/18 09:05:21;;;;;;;3.52;1.37;;;;;;;16.64;40.14;100953.61;1809824;76;21770;-61
2022/05/18 09:08:00;;;;;;;2.52;1.02;;;;;;;16.61;40.22;100948.50;1812583;78;21029;-61
2022/05/18 09:10:45;;;;;;;5.85;1.50;;;;;;;16.51;40.16;100955.18;1811132;76;21569;-62
2022/05/18 09:13:13;;;;;;;3.12;1.00;;;;;;;16.60;40.16;100948.09;1810688;78;21062;-62
2022/05/18 09:15:57;;;;;;;4.67;1.00;;;;;;;16.75;40.25;100955.21;1811934;78;21068;-61
2022/05/18 09:18:35;;;;;;;3.35;1.17;;;;;;;16.78;40.21;100952.44;1811854;78;21089;-61
2022/05/18 09:21:29;;;;;;;7.83;1.30;;;;;;;16.82;40.04;100952.27;1793117;78;21131;-62
2022/05/18 09:24:22;;;;;;;3.37;1.05;;;;;;;16.86;40.21;100948.52;1787749;79;20997;-61
2022/05/18 09:27:14;;;;;;;3.37;1.02;;;;;;;16.88;40.03;100951.94;1729967;81;21048;-62
2022/05/18 09:30:04;;;;;;;3.80;0.75;;;;;;;16.82;40.18;100947.00;1729215;81;21733;-61
2022/05/18 09:33:09;;;;;;;5.37;1.40;;;;;;;16.90;40.33;100944.80;1690906;82;22475;-61
2022/05/18 09:35:53;;;;;;;5.70;1.20;;;;;;;16.90;39.87;100947.44;1689950;83;21156;-60
2022/05/18 09:38:52;;;;;;;4.30;1.32;;;;;;;16.55;39.58;100936.94;1675147;84;21086;-61
2022/05/18 09:41:23;;;;;;;4.35;1.05;;;;;;;16.44;39.72;100937.52;1673265;84;21712;-61
2022/05/18 09:44:07;;;;;;;3.35;0.98;;;;;;;16.52;39.56;100939.73;1676459;84;21117;-61
2022/05/18 09:46:34;;;;;;;6.00;1.40;;;;;;;16.52;39.72;100938.42;1677955;84;21139;-60
2022/05/18 09:49:25;;;;;;;3.37;1.00;;;;;;;16.48;39.66;100932.94;1666085;84;21156;-62
2022/05/18 09:51:54;;;;;;;5.65;1.12;;;;;;;16.46;39.60;100934.80;1676255;84;21590;-61
2022/05/18 09:54:21;;;;;;;8.05;1.70;;;;;;;16.45;39.65;100933.09;1678447;84;22516;-62
2022/05/18 09:56:58;;;;;;;3.80;1.00;;;;;;;16.56;39.70;100936.02;1688133;83;20963;-60
2022/05/18 09:59:30;;;;;;;2.17;0.93;;;;;;;16.70;39.85;100930.86;1701492;83;21493;-60
2022/05/18 10:07:44;;;;;;;3.42;1.00;;;;;;;17.32;39.27;100926.21;1661302;85;21060;-63
2022/05/18 10:10:22;;;;;;;1.35;0.90;;;;;;;17.22;39.11;100935.09;1660856;85;21233;-64
2022/05/18 10:13:02;;;;;;;4.08;1.02;;;;;;;17.19;38.99;100930.84;1619577;86;21538;-64
2022/05/18 10:15:33;;;;;;;6.15;1.10;;;;;;;17.01;39.04;100925.28;1663551;85;25785;-66
2022/05/18 10:21:26;;;;;;;4.40;1.20;;;;;;;17.31;38.59;100915.25;1856167;75;22248;-61
2022/05/18 10:23:57;;;;;;;2.30;0.90;;;;;;;17.07;38.55;100915.70;1819864;77;21163;-61
2022/05/18 10:26:38;;;;;;;2.42;0.70;;;;;;;17.14;38.75;100917.08;1826394;78;21098;-60
2022/05/18 10:29:19;;;;;;;10.25;1.15;;;;;;;17.03;38.17;100919.45;1822906;77;21148;-62
2022/05/18 10:32:09;;;;;;;2.58;0.90;;;;;;;17.05;38.45;100914.92;1784388;80;21505;-61
2022/05/18 10:34:48;;;;;;;7.10;1.27;;;;;;;17.11;38.36;100910.66;1682838;83;21097;-62
2022/05/18 10:37:35;;;;;;;9.25;1.30;;;;;;;17.10;38.17;100915.52;1734269;82;21033;-61
2022/05/18 10:40:16;;;;;;;2.37;1.10;;;;;;;16.76;37.89;100909.46;1705369;82;21446;-60
2022/05/18 10:42:56;;;;;;;3.27;1.00;;;;;;;16.80;37.94;100904.02;1703962;82;21041;-63
2022/05/18 10:45:33;;;;;;;4.12;1.00;;;;;;;16.72;38.04;100899.99;1685510;83;21556;-65
2022/05/18 10:48:11;;;;;;;8.20;1.12;;;;;;;16.74;37.96;100895.47;1705404;82;21079;-64
2022/05/18 10:50:40;;;;;;;3.10;1.00;;;;;;;16.70;38.05;100893.94;1682171;82;21165;-62
2022/05/18 10:53:18;;;;;;;4.60;0.95;;;;;;;16.91;38.37;100896.37;1689179;83;21231;-63
2022/05/18 10:56:03;;;;;;;4.25;0.68;;;;;;;17.12;38.29;100886.42;1741732;80;21069;-62
2022/05/18 10:58:38;;;;;;;4.33;0.95;;;;;;;17.26;37.57;100883.02;1733974;80;21092;-69
2022/05/18 11:01:19;;;;;;;5.30;1.07;;;;;;;16.86;37.41;100879.94;1739452;82;21033;-62
2022/05/18 11:03:57;;;;;;;3.60;1.55;;;;;;;17.06;38.09;100881.02;1738276;80;21890;-63
2022/05/18 11:06:38;;;;;;;4.20;0.90;;;;;;;17.39;38.09;100874.31;1707580;82;21438;-63
2022/05/18 11:09:22;;;;;;;8.15;1.02;;;;;;;17.63;37.67;100865.42;1706134;83;22841;-62
2022/05/18 11:12:00;;;;;;;2.80;0.85;;;;;;;17.76;37.38;100859.44;1799023;77;21070;-62
2022/05/18 11:15:03;;;;;;;2.02;0.80;;;;;;;17.67;36.86;100852.43;1823076;77;21145;-61
2022/05/18 11:18:14;;;;;;;1.45;0.80;;;;;;;17.51;37.35;100854.27;1798375;78;21022;-62
2022/05/18 11:21:09;;;;;;;2.22;0.80;;;;;;;17.50;36.71;100849.90;1822429;77;21459;-60
2022/05/18 11:23:59;;;;;;;2.83;0.68;;;;;;;17.58;37.32;100850.30;1809963;77;20960;-61
2022/05/18 11:26:57;;;;;;;8.65;1.40;;;;;;;17.84;36.98;100846.18;1777617;78;21053;-62
2022/05/18 11:30:07;;;;;;;1.45;0.53;;;;;;;17.82;36.01;100841.92;1684193;83;20965;-61
2022/05/18 11:33:00;;;;;;;4.03;1.00;;;;;;;17.50;36.50;100834.05;1704411;82;20919;-61
2022/05/18 11:36:10;;;;;;;51.55;3.37;;;;;;;17.66;36.84;100824.30;1625224;86;21157;-61
2022/05/18 11:39:02;;;;;;;1.70;0.95;;;;;;;17.89;36.88;100823.42;1632934;86;21232;-61
2022/05/18 11:41:36;;;;;;;0.98;0.55;;;;;;;17.96;35.40;100820.80;1631258;86;21157;-61
2022/05/18 11:44:22;;;;;;;1.80;0.70;;;;;;;17.92;36.54;100819.27;1606901;87;21193;-61
2022/05/18 11:47:03;;;;;;;5.28;0.80;;;;;;;17.93;36.33;100820.99;1631102;86;21179;-61
2022/05/18 11:49:53;;;;;;;2.92;1.20;;;;;;;17.87;36.03;100813.44;1634280;86;21145;-61
2022/05/18 11:55:59;;;;;;;9.95;0.95;;;;;;;17.52;34.74;100805.78;1882035;74;23439;-63
2022/05/18 11:59:07;;;;;;;12.68;1.60;;;;;;;17.35;35.53;100803.28;1827892;77;21561;-62
2022/05/18 12:01:33;;;;;;;15.03;1.35;;;;;;;17.63;36.01;100807.31;1821474;77;22622;-61
2022/05/18 12:04:31;;;;;;;3.83;1.07;;;;;;;18.02;35.99;100799.28;1822136;77;21025;-62
2022/05/18 12:07:32;;;;;;;2.77;0.80;;;;;;;18.21;35.44;100803.45;1824361;77;20977;-62
2022/05/18 12:13:02;;;;;;;2.87;0.82;;;;;;;18.30;35.43;100797.58;1866678;75;21976;-62
2022/05/18 12:15:40;;;;;;;1.05;0.80;;;;;;;18.25;35.35;100793.05;1835922;77;21002;-62